KUNV/SCE METAR and TAF weather

Enter ICAO airport designator
Station Type Date Time Source
KUNV METAR 2021/08/05 05:15 UTC NOAA

KUNV 050515Z AUTO 00000KT 10SM SCT080 17/13 A3015 RMK AO2 T01700134


Station Type Date Time Source
KUNV Decoded METAR 2021/08/05 05:15 UTC NOAA

State College, University Park Airport, PA, United States (KUNV) 40-51N 077-51W
Aug 05, 2021 - 01:15 AM EDT / 2021.08.05 0515 UTC
Wind: Calm:0
Visibility: 10 mile(s):0
Sky conditions: partly cloudy
Temperature: 62.6 F (17.0 C)
Dew Point: 56.1 F (13.4 C)
Relative Humidity: 79%
Pressure (altimeter): 30.15 in. Hg (1020 hPa)
ob: KUNV 050515Z AUTO 00000KT 10SM SCT080 17/13 A3015 RMK AO2 T01700134
cycle: 5

Station Type Date Time Source
KUNV TAF 2021/08/05 06:22 UTC NOAA

TAF KUNV 050520Z 0506/0606 VRB03KT P6SM SKC
FM051200 VRB03KT P6SM FEW080

Example: see airport list